Time;durP1;ratioP1;P1;durP2;ratioP2;P2;SDS_P1;SDS_P2;PMS_P1;PMS_P2;Temp;Humidity;BMP_temperature;BMP_pressure;BME280_temperature;BME280_humidity;BME280_pressure;Samples;Min_cycle;Max_cycle;Signal;HPM_P1;HPM_P2
2022/08/12 00:44:52;;;;;;;3.42;3.25;;;;;;;20.19;82.85;64086.50;4932166;29;20233;-79
2022/08/12 00:47:20;;;;;;;3.15;3.03;;;;;;;20.28;83.02;64100.53;4936241;29;20197;-78
2022/08/12 00:49:49;;;;;;;2.80;2.70;;;;;;;20.29;82.08;64099.00;4942568;29;20217;-78
2022/08/12 00:52:17;;;;;;;2.97;2.30;;;;;;;20.19;82.89;64091.16;4927823;29;20197;-77
2022/08/12 00:54:46;;;;;;;3.28;3.08;;;;;;;20.08;83.78;64075.00;4929054;29;20221;-79
2022/08/12 00:57:16;;;;;;;3.13;2.92;;;;;;;19.98;84.61;64062.00;4929852;29;20208;-77
2022/08/12 00:59:46;;;;;;;3.28;3.08;;;;;;;20.01;84.60;64069.78;4936365;29;20459;-78
2022/08/12 01:02:22;;;;;;;3.55;3.35;;;;;;;20.01;84.44;64067.72;4926985;29;20197;-77
2022/08/12 01:13:13;;;;;;;3.63;2.90;;;;;;;20.01;85.28;64064.59;4947324;29;20195;-78
2022/08/12 01:15:41;;;;;;;2.80;2.60;;;;;;;20.04;84.53;64073.41;4946506;29;20391;-77
2022/08/12 01:18:09;;;;;;;3.03;2.90;;;;;;;20.11;83.86;64080.72;4942354;29;20204;-78
2022/08/12 01:20:47;;;;;;;2.58;2.47;;;;;;;20.13;83.38;64079.69;4945864;29;20260;-78
2022/08/12 01:23:47;;;;;;;2.90;2.70;;;;;;;20.09;83.81;64078.09;4947407;29;20279;-78
2022/08/12 01:26:19;;;;;;;2.70;2.60;;;;;;;20.17;83.60;64089.06;4944993;29;20205;-78
2022/08/12 01:28:51;;;;;;;2.60;2.50;;;;;;;20.09;84.08;64078.63;4945404;29;20224;-79
2022/08/12 01:31:20;;;;;;;3.17;2.97;;;;;;;20.14;84.10;64083.84;4948898;29;20436;-78
2022/08/12 01:33:58;;;;;;;3.10;2.90;;;;;;;20.17;83.60;64084.41;4945924;29;20221;-78
2022/08/12 01:36:27;;;;;;;2.78;2.67;;;;;;;20.27;84.03;64096.91;4932643;29;20203;-78
2022/08/12 01:38:57;;;;;;;2.83;2.72;;;;;;;20.29;82.68;64102.13;4927652;29;20244;-79
2022/08/12 01:41:29;;;;;;;2.80;2.60;;;;;;;20.24;82.44;64093.78;4927724;29;20230;-77
2022/08/12 01:44:01;;;;;;;3.38;2.78;;;;;;;20.29;82.61;64102.13;4928360;29;20292;-78
2022/08/12 01:46:43;;;;;;;3.10;3.00;;;;;;;20.43;81.96;64111.53;4934446;29;20212;-78
2022/08/12 01:49:33;;;;;;;2.83;2.72;;;;;;;20.45;81.54;64118.81;4948408;29;20247;-78
2022/08/12 01:52:05;;;;;;;3.00;2.90;;;;;;;20.42;81.20;64113.09;4944000;29;20200;-78
2022/08/12 01:54:38;;;;;;;2.80;2.60;;;;;;;20.52;81.04;64123.53;4936993;29;20240;-78
2022/08/12 01:57:16;;;;;;;4.68;3.60;;;;;;;20.43;81.69;64113.63;4949027;29;20201;-78
2022/08/12 01:59:55;;;;;;;3.60;3.30;;;;;;;20.42;82.03;64112.56;4946186;29;20232;-78
2022/08/12 02:02:32;;;;;;;3.42;3.13;;;;;;;20.43;81.75;64108.44;4946071;29;20197;-78
2022/08/12 02:11:16;;;;;;;3.78;3.58;;;;;;;20.19;85.45;64091.16;4944395;29;20417;-80
2022/08/12 02:14:16;;;;;;;4.43;4.03;;;;;;;20.18;86.47;64088.06;4941862;29;20229;-78
2022/08/12 02:16:58;;;;;;;3.95;3.75;;;;;;;20.16;86.85;64088.56;4925939;29;20206;-79
2022/08/12 02:19:47;;;;;;;3.75;3.50;;;;;;;19.79;90.05;64047.34;4939273;29;20224;-77
2022/08/12 02:22:27;;;;;;;3.85;3.55;;;;;;;19.74;91.26;64039.03;4926482;29;20197;-79
2022/08/12 02:24:59;;;;;;;3.72;3.47;;;;;;;19.89;90.16;64055.19;4928090;29;20475;-79
2022/08/12 02:27:28;;;;;;;4.32;4.03;;;;;;;19.99;89.59;64067.69;4928291;29;20205;-79
2022/08/12 02:29:56;;;;;;;4.40;4.10;;;;;;;20.02;89.59;64071.31;4926797;29;20479;-77
2022/08/12 02:32:24;;;;;;;4.30;4.00;;;;;;;20.01;89.71;64069.78;4927872;29;20447;-78
2022/08/12 02:34:51;;;;;;;3.67;3.47;;;;;;;20.09;90.31;64072.94;4926300;29;20247;-79
2022/08/12 02:37:20;;;;;;;4.15;3.78;;;;;;;20.10;90.95;64077.09;4928413;29;20286;-78
2022/08/12 02:39:49;;;;;;;3.25;3.08;;;;;;;20.02;91.40;64070.81;4929580;29;20212;-78
2022/08/12 02:42:21;;;;;;;3.33;3.13;;;;;;;20.08;90.28;64079.66;4945938;29;20256;-77
2022/08/12 02:44:53;;;;;;;3.85;3.60;;;;;;;19.81;92.50;64046.31;4942827;29;20237;-79
2022/08/12 02:47:25;;;;;;;4.50;3.20;;;;;;;19.71;93.47;64041.06;4931729;29;20209;-79
2022/08/12 02:49:56;;;;;;;5.22;3.92;;;;;;;19.62;94.27;64029.09;4944417;29;20284;-78
2022/08/12 02:52:25;;;;;;;3.70;3.40;;;;;;;19.68;94.72;64032.75;4950339;29;20205;-78
2022/08/12 02:55:00;;;;;;;3.80;3.50;;;;;;;19.78;93.96;64045.75;4936560;29;20233;-79
2022/08/12 02:57:28;;;;;;;3.17;3.08;;;;;;;19.75;94.45;64043.16;4930218;29;20203;-78
2022/08/12 02:59:56;;;;;;;3.50;3.20;;;;;;;19.75;94.06;64043.16;4938880;29;20221;-78
2022/08/12 03:02:27;;;;;;;3.60;3.40;;;;;;;19.78;94.55;64046.28;4948143;29;20490;-79
2022/08/12 03:04:57;;;;;;;3.72;3.53;;;;;;;19.70;94.14;64037.44;4931788;29;20264;-78
2022/08/12 03:07:31;;;;;;;3.15;3.05;;;;;;;19.78;94.64;64040.59;4940930;29;20264;-77
2022/08/12 03:10:05;;;;;;;3.55;3.35;;;;;;;19.83;94.16;64048.91;4937646;29;20219;-78
2022/08/12 03:12:36;;;;;;;3.80;3.60;;;;;;;19.91;93.80;64057.28;4950025;29;20209;-78
2022/08/12 03:15:06;;;;;;;3.47;3.17;;;;;;;19.93;92.73;64059.34;4950404;29;20220;-78
2022/08/12 03:17:38;;;;;;;3.70;3.50;;;;;;;19.97;92.95;64066.13;4948777;29;20200;-78
2022/08/12 03:20:08;;;;;;;3.90;3.70;;;;;;;19.93;93.86;64064.00;4934448;29;20429;-77
2022/08/12 03:22:39;;;;;;;4.07;3.85;;;;;;;19.94;93.46;64059.88;4937459;29;20208;-78
2022/08/12 03:25:06;;;;;;;3.72;3.50;;;;;;;19.86;94.37;64051.53;4950137;29;20337;-79
2022/08/12 03:27:33;;;;;;;13.90;11.80;;;;;;;19.81;95.52;64046.31;4946257;29;20216;-79
2022/08/12 03:30:01;;;;;;;7.55;6.80;;;;;;;19.82;94.54;64045.31;4929965;29;20218;-77
2022/08/12 03:32:31;;;;;;;4.28;3.97;;;;;;;19.91;93.98;64059.34;4946162;29;20208;-80
2022/08/12 03:35:01;;;;;;;4.18;3.90;;;;;;;19.97;94.23;64066.13;4948992;29;20221;-78
2022/08/12 03:37:30;;;;;;;4.70;4.40;;;;;;;19.99;95.20;64070.25;4946366;29;20384;-78
2022/08/12 03:39:57;;;;;;;5.07;4.47;;;;;;;20.02;96.60;64068.25;4946663;29;20244;-79
2022/08/12 03:42:29;;;;;;;4.15;3.95;;;;;;;19.81;100.00;64046.31;4940379;29;20256;-80
2022/08/12 04:01:51;;;;;;;5.55;5.15;;;;;;;18.55;100.00;63915.97;4928242;29;20199;-71
2022/08/12 04:04:22;;;;;;;7.13;5.47;;;;;;;18.29;100.00;63888.88;4931286;29;20589;-72
2022/08/12 04:06:50;;;;;;;9.05;5.32;;;;;;;18.17;100.00;63876.38;4934244;29;20291;-73
2022/08/12 04:09:21;;;;;;;10.10;5.95;;;;;;;17.99;100.00;63860.19;4946966;29;20261;-74
2022/08/12 04:14:34;;;;;;;10.32;6.32;;;;;;;17.92;100.00;63850.84;4934881;29;20300;-74
2022/08/12 04:17:03;;;;;;;8.00;6.13;;;;;;;17.94;100.00;63854.97;4927703;29;20225;-76
2022/08/12 04:19:31;;;;;;;9.07;6.50;;;;;;;17.70;100.00;63829.97;4928706;29;20221;-75
2022/08/12 04:21:58;;;;;;;7.57;5.78;;;;;;;17.59;100.00;63816.47;4928124;29;20245;-75
2022/08/12 04:24:27;;;;;;;8.07;5.65;;;;;;;17.69;100.00;63831.53;4923936;29;20272;-76
2022/08/12 04:26:54;;;;;;;6.53;5.93;;;;;;;17.61;100.00;63818.56;4885779;29;20232;-75
2022/08/12 04:29:22;;;;;;;8.23;5.78;;;;;;;17.53;100.00;63812.81;4889943;29;20286;-77
2022/08/12 04:31:50;;;;;;;6.85;5.35;;;;;;;17.45;100.00;63799.28;4883892;29;20203;-77
2022/08/12 04:34:17;;;;;;;8.48;6.15;;;;;;;17.44;100.00;63803.41;4889601;29;20595;-77
2022/08/12 04:36:45;;;;;;;7.47;5.70;;;;;;;17.53;100.00;63807.66;4887479;29;20211;-77
2022/08/12 04:39:13;;;;;;;5.88;5.38;;;;;;;17.60;100.00;63817.50;4888547;29;20234;-76
2022/08/12 04:41:43;;;;;;;6.55;5.60;;;;;;;17.54;100.00;63813.31;4887262;29;20207;-75
2022/08/12 04:44:10;;;;;;;7.22;6.53;;;;;;;17.56;100.00;63815.91;4889744;29;20226;-77
2022/08/12 04:46:37;;;;;;;5.65;5.05;;;;;;;17.60;100.00;63819.56;4881459;29;20215;-77
2022/08/12 04:49:05;;;;;;;5.47;4.95;;;;;;;17.58;100.00;63814.91;4889163;29;20473;-77
2022/08/12 04:51:33;;;;;;;7.90;5.97;;;;;;;17.62;100.00;63816.50;4886521;29;20386;-77
2022/08/12 04:54:01;;;;;;;10.07;6.43;;;;;;;17.63;100.00;63820.13;4886071;29;20519;-77
2022/08/12 04:56:29;;;;;;;6.72;6.13;;;;;;;17.74;100.00;63834.66;4889469;29;20516;-77
2022/08/12 04:58:58;;;;;;;6.50;5.90;;;;;;;17.82;100.00;63845.06;4886082;29;20408;-77
2022/08/12 05:01:29;;;;;;;6.90;5.57;;;;;;;17.88;100.00;63849.25;4882209;29;20287;-77
2022/08/12 05:03:57;;;;;;;5.75;5.35;;;;;;;17.94;100.00;63847.78;4868211;29;20223;-77
2022/08/12 05:06:25;;;;;;;5.55;5.07;;;;;;;17.78;100.00;63835.72;4872116;29;20286;-77
2022/08/12 05:08:54;;;;;;;5.47;5.10;;;;;;;17.78;100.00;63833.69;4889306;29;20418;-77
2022/08/12 05:11:22;;;;;;;5.45;4.95;;;;;;;17.76;100.00;63836.75;4889175;29;20202;-77
2022/08/12 05:13:52;;;;;;;6.25;4.75;;;;;;;17.82;100.00;63842.47;4890016;29;20231;-81
2022/08/12 05:16:21;;;;;;;5.60;5.20;;;;;;;17.79;100.00;63836.78;4889289;29;20279;-77
2022/08/12 05:18:48;;;;;;;5.30;4.90;;;;;;;17.94;100.00;63852.94;4889654;29;20302;-78
2022/08/12 05:21:15;;;;;;;5.75;5.30;;;;;;;18.02;100.00;63863.81;4888353;29;20269;-78
2022/08/12 05:23:42;;;;;;;5.78;5.05;;;;;;;18.14;100.00;63873.22;4888584;29;20230;-77
2022/08/12 05:26:10;;;;;;;5.80;5.40;;;;;;;18.31;100.00;63888.34;4889393;29;20234;-79
2022/08/12 05:28:37;;;;;;;5.47;5.07;;;;;;;18.35;100.00;63893.06;4890703;29;20230;-77
2022/08/12 05:31:05;;;;;;;5.18;4.78;;;;;;;18.35;100.00;63895.63;4889357;29;20214;-78
2022/08/12 05:33:36;;;;;;;4.65;4.35;;;;;;;18.26;100.00;63886.25;4890062;29;20324;-77
2022/08/12 05:36:07;;;;;;;4.88;4.57;;;;;;;18.28;100.00;63890.91;4889386;29;20487;-78
2022/08/12 05:41:20;;;;;;;5.20;4.80;;;;;;;18.29;100.00;63886.28;4889748;29;20535;-78
2022/08/12 05:43:48;;;;;;;5.18;4.78;;;;;;;18.29;100.00;63894.03;4889824;29;20564;-78
2022/08/12 05:46:16;;;;;;;5.13;4.82;;;;;;;18.40;100.00;63898.28;4889052;29;20238;-79
2022/08/12 05:48:44;;;;;;;5.85;4.50;;;;;;;18.59;100.00;63922.19;4889910;29;20447;-78
2022/08/12 05:51:11;;;;;;;5.40;4.43;;;;;;;18.74;100.00;63937.84;4890010;29;20199;-77
2022/08/12 05:53:39;;;;;;;4.20;4.00;;;;;;;18.75;100.00;63939.41;4889958;29;20245;-77
2022/08/12 05:56:18;;;;;;;4.72;4.32;;;;;;;18.84;100.00;63946.19;4888854;29;20200;-76
2022/08/12 05:58:45;;;;;;;5.35;4.82;;;;;;;18.91;100.00;63950.91;4888977;29;20218;-76
2022/08/12 06:01:12;;;;;;;3.67;3.42;;;;;;;18.97;100.00;63959.75;4889281;29;20404;-77
2022/08/12 06:03:40;;;;;;;6.15;3.83;;;;;;;19.08;100.00;63970.69;4888962;29;20242;-77
2022/08/12 06:06:09;;;;;;;4.30;4.00;;;;;;;19.16;100.00;63979.56;4888748;29;20234;-75
2022/08/12 06:08:37;;;;;;;4.70;4.15;;;;;;;19.30;100.00;63996.75;4888791;29;20222;-75
2022/08/12 06:11:04;;;;;;;4.43;4.22;;;;;;;19.33;100.00;63999.88;4888773;29;20258;-77
2022/08/12 06:13:33;;;;;;;4.85;4.55;;;;;;;19.36;100.00;64002.50;4889210;29;20214;-76
2022/08/12 06:16:01;;;;;;;4.45;4.10;;;;;;;19.59;100.00;64025.97;4888304;29;20282;-75
2022/08/12 06:18:29;;;;;;;4.63;4.28;;;;;;;19.86;100.00;64051.53;4889704;29;20261;-76
2022/08/12 06:20:57;;;;;;;4.32;4.05;;;;;;;19.90;100.00;64058.81;4892704;29;20202;-77
2022/08/12 06:23:27;;;;;;;5.75;5.35;;;;;;;19.85;100.00;64050.47;4892826;29;20222;-76
2022/08/12 06:25:55;;;;;;;6.57;6.00;;;;;;;20.02;100.00;64071.31;4892579;29;20230;-76
2022/08/12 06:28:22;;;;;;;6.40;5.80;;;;;;;20.13;100.00;64082.28;4893332;29;20263;-76
2022/08/12 06:30:50;;;;;;;6.28;5.88;;;;;;;20.05;100.00;64071.88;4892356;29;20214;-77
2022/08/12 06:33:18;;;;;;;9.10;5.95;;;;;;;19.93;100.00;64056.25;4893288;29;20387;-76
2022/08/12 06:35:46;;;;;;;6.70;6.10;;;;;;;19.92;100.00;64060.91;4893769;29;20534;-76
2022/08/12 06:38:15;;;;;;;9.20;5.60;;;;;;;19.87;100.00;64055.69;4893999;29;20219;-76
2022/08/12 06:43:29;;;;;;;5.82;5.32;;;;;;;19.84;100.00;64046.88;4894062;29;20479;-75
2022/08/12 06:45:57;;;;;;;6.25;5.75;;;;;;;20.15;100.00;64079.22;4893369;29;20246;-77
2022/08/12 06:48:26;;;;;;;5.72;5.13;;;;;;;20.44;100.00;64117.25;4893336;29;20297;-75
2022/08/12 06:50:54;;;;;;;5.43;5.00;;;;;;;20.81;100.00;64153.28;4892907;29;20211;-76
2022/08/12 06:53:22;;;;;;;4.95;4.65;;;;;;;21.10;100.00;64180.47;4893145;29;20226;-76
2022/08/12 06:55:53;;;;;;;4.25;4.00;;;;;;;21.29;100.00;64200.84;4893235;29;20223;-75
2022/08/12 06:58:23;;;;;;;4.35;4.05;;;;;;;21.45;100.00;64222.22;4892836;29;20257;-76
2022/08/12 07:00:52;;;;;;;5.00;4.57;;;;;;;21.47;100.00;64219.09;4892541;29;20222;-76
2022/08/12 07:03:21;;;;;;;4.70;4.30;;;;;;;21.72;100.00;64248.34;4893077;29;20230;-75
2022/08/12 07:05:48;;;;;;;4.55;4.28;;;;;;;21.88;100.00;64267.16;4892195;29;20240;-75
2022/08/12 07:08:15;;;;;;;3.78;3.45;;;;;;;22.05;100.00;64282.34;4892685;29;20290;-76
2022/08/12 07:10:46;;;;;;;3.78;3.40;;;;;;;22.15;100.00;64290.19;4892522;29;20285;-76
2022/08/12 07:13:14;;;;;;;3.35;3.15;;;;;;;22.03;100.00;64277.13;4891632;29;20273;-75
2022/08/12 07:15:44;;;;;;;3.50;3.40;;;;;;;22.13;100.00;64285.50;4891439;29;20238;-76
2022/08/12 07:18:14;;;;;;;3.22;3.13;;;;;;;22.17;100.00;64292.28;4891927;29;20266;-75
2022/08/12 07:20:43;;;;;;;3.15;3.05;;;;;;;22.53;100.00;64329.38;4892062;29;20316;-76
2022/08/12 07:23:11;;;;;;;3.90;3.33;;;;;;;22.67;100.00;64344.03;4891791;29;20258;-74
2022/08/12 07:25:38;;;;;;;4.28;3.30;;;;;;;22.82;100.00;64357.66;4891474;29;20277;-74
2022/08/12 07:28:08;;;;;;;3.70;3.35;;;;;;;23.06;100.00;64384.28;4891215;29;20203;-75
2022/08/12 07:30:39;;;;;;;3.20;3.10;;;;;;;22.78;100.00;64358.66;4891012;29;20195;-74
2022/08/12 07:33:07;;;;;;;3.08;2.88;;;;;;;22.76;100.00;64356.06;4891101;29;20215;-75
2022/08/12 07:35:44;;;;;;;7.95;2.92;;;;;;;22.84;97.46;64364.94;4891981;29;20199;-75
2022/08/12 07:38:26;;;;;;;3.40;2.47;;;;;;;23.19;98.49;64395.81;4891920;29;20211;-76
2022/08/12 07:41:00;;;;;;;2.80;2.70;;;;;;;23.34;92.37;64416.19;4892155;29;20191;-74
2022/08/12 07:43:27;;;;;;;2.70;2.58;;;;;;;23.32;91.18;64412.03;4891342;29;20606;-75
2022/08/12 07:45:56;;;;;;;2.85;2.75;;;;;;;23.61;95.73;64447.56;4891108;29;20240;-75
2022/08/12 07:48:24;;;;;;;2.90;2.67;;;;;;;23.85;94.06;64467.47;4891404;29;20631;-75
2022/08/12 07:50:53;;;;;;;2.80;2.50;;;;;;;24.09;90.41;64492.09;4890592;29;20203;-75
2022/08/12 07:53:20;;;;;;;6.38;3.10;;;;;;;24.22;85.63;64510.38;4891443;29;20258;-75
2022/08/12 07:55:48;;;;;;;2.85;2.75;;;;;;;24.29;88.09;64515.63;4891142;29;20217;-75
2022/08/12 07:58:15;;;;;;;3.28;2.95;;;;;;;24.39;92.67;64522.97;4890735;29;20230;-74
2022/08/12 08:00:43;;;;;;;3.35;3.05;;;;;;;24.37;92.19;64523.47;4890957;29;20207;-75
2022/08/12 08:03:15;;;;;;;2.90;2.80;;;;;;;24.60;92.37;64550.16;4892800;29;20269;-75
2022/08/12 08:05:45;;;;;;;3.47;3.28;;;;;;;24.94;91.45;64577.97;4890637;29;20237;-75
2022/08/12 08:08:17;;;;;;;2.78;2.67;;;;;;;25.11;86.64;64604.13;4874497;29;20211;-76
2022/08/12 08:10:45;;;;;;;2.88;2.72;;;;;;;25.38;86.87;64628.78;4887383;29;20202;-75
2022/08/12 08:13:12;;;;;;;2.58;2.47;;;;;;;25.59;82.86;64648.69;4890766;29;20560;-75
2022/08/12 08:15:40;;;;;;;3.35;3.00;;;;;;;25.80;79.12;64673.31;4891227;29;20234;-74
2022/08/12 08:18:10;;;;;;;2.90;2.70;;;;;;;25.98;76.85;64694.81;4890590;29;20203;-75
2022/08/12 08:20:42;;;;;;;2.92;2.72;;;;;;;26.13;77.38;64705.31;4889558;29;20201;-75
2022/08/12 08:23:11;;;;;;;3.47;2.53;;;;;;;26.47;73.30;64742.53;4891144;29;20203;-75
2022/08/12 08:25:38;;;;;;;3.25;3.05;;;;;;;26.76;70.70;64772.97;4890378;29;20235;-75
2022/08/12 08:28:09;;;;;;;3.25;3.00;;;;;;;26.78;68.91;64772.44;4891679;29;20278;-75
2022/08/12 08:30:38;;;;;;;3.25;3.15;;;;;;;26.52;61.05;64747.78;4890617;29;20278;-76
2022/08/12 08:33:09;;;;;;;3.13;3.03;;;;;;;26.80;65.00;64777.16;4890730;29;20270;-76
2022/08/12 08:35:39;;;;;;;2.85;2.75;;;;;;;27.16;62.84;64817.53;4889837;29;20247;-75
2022/08/12 08:38:13;;;;;;;2.88;2.78;;;;;;;27.00;60.18;64798.13;4890558;29;20395;-76
2022/08/12 08:43:27;;;;;;;3.00;2.80;;;;;;;27.62;60.60;64863.19;4890380;29;20263;-75
2022/08/12 08:45:55;;;;;;;2.85;2.75;;;;;;;27.84;57.27;64885.75;4889921;29;20429;-76
2022/08/12 08:48:22;;;;;;;2.28;2.17;;;;;;;28.17;53.07;64920.41;4889449;29;20252;-75
2022/08/12 08:50:52;;;;;;;3.20;3.03;;;;;;;27.95;49.41;64903.09;4890247;29;20277;-74
2022/08/12 08:53:19;;;;;;;3.13;2.92;;;;;;;27.75;52.31;64878.94;4890320;29;20389;-76
2022/08/12 08:55:48;;;;;;;3.05;2.85;;;;;;;27.65;51.14;64866.34;4893466;29;20397;-76
2022/08/12 08:58:17;;;;;;;2.78;2.58;;;;;;;27.68;50.47;64866.88;4891859;29;20242;-75
2022/08/12 09:00:46;;;;;;;2.67;2.58;;;;;;;27.40;51.25;64837.50;4891837;29;20559;-76
2022/08/12 09:03:13;;;;;;;2.50;2.40;;;;;;;27.35;49.60;64834.88;4892072;29;20200;-76
2022/08/12 09:05:40;;;;;;;2.33;2.22;;;;;;;27.02;52.04;64800.75;4891746;29;20289;-77
2022/08/12 09:08:09;;;;;;;2.83;2.72;;;;;;;27.14;50.79;64815.97;4875933;29;20203;-75
2022/08/12 09:10:37;;;;;;;2.42;2.20;;;;;;;27.15;50.10;64817.00;4873506;29;20203;-76
2022/08/12 09:15:50;;;;;;;3.13;3.03;;;;;;;26.99;47.79;64802.31;4871458;29;20186;-75
2022/08/12 09:18:17;;;;;;;3.80;2.22;;;;;;;26.99;46.66;64797.09;4870830;29;20456;-76
2022/08/12 09:20:49;;;;;;;2.95;2.78;;;;;;;26.98;47.93;64793.41;4871467;29;20211;-75
2022/08/12 09:23:18;;;;;;;2.65;2.55;;;;;;;26.78;47.85;64775.59;4871664;29;20298;-76
2022/08/12 09:25:47;;;;;;;2.53;2.42;;;;;;;26.64;49.58;64763.50;4871241;29;20482;-76
2022/08/12 09:28:15;;;;;;;3.17;3.08;;;;;;;26.28;51.75;64725.22;4871611;29;20223;-75
2022/08/12 09:30:47;;;;;;;2.90;2.80;;;;;;;26.41;52.88;64738.84;4871079;29;20564;-75
2022/08/12 09:33:14;;;;;;;3.00;2.90;;;;;;;26.48;49.64;64744.09;4870842;29;20541;-76
2022/08/12 09:35:42;;;;;;;2.95;2.75;;;;;;;25.94;52.60;64688.00;4870844;29;20200;-75
2022/08/12 09:38:14;;;;;;;3.63;2.72;;;;;;;26.09;52.12;64705.81;4871619;29;20217;-75
2022/08/12 09:40:42;;;;;;;3.38;3.28;;;;;;;26.06;52.77;64700.59;4871579;29;20214;-76
2022/08/12 09:45:54;;;;;;;3.85;3.55;;;;;;;25.68;51.69;64660.22;4871995;29;20253;-77
2022/08/12 09:48:21;;;;;;;3.63;3.33;;;;;;;26.03;50.93;64702.13;4871177;29;20286;-76
2022/08/12 09:50:49;;;;;;;3.80;3.60;;;;;;;25.46;51.90;64642.38;4870887;29;20235;-75
2022/08/12 09:53:22;;;;;;;3.17;3.00;;;;;;;25.77;53.20;64669.66;4873998;29;20599;-79
2022/08/12 09:55:52;;;;;;;3.17;3.08;;;;;;;26.18;51.13;64715.25;4877360;29;20203;-76
2022/08/12 09:58:24;;;;;;;3.58;3.33;;;;;;;26.67;48.67;64763.50;4877268;29;20253;-76
2022/08/12 10:00:53;;;;;;;3.10;3.00;;;;;;;26.98;45.54;64796.03;4877711;29;20207;-76
2022/08/12 10:03:23;;;;;;;4.68;3.25;;;;;;;27.02;46.01;64802.84;4877326;29;20260;-77
2022/08/12 10:05:50;;;;;;;2.75;2.63;;;;;;;27.23;47.31;64822.25;4876937;29;20241;-77
2022/08/12 10:08:18;;;;;;;3.22;3.03;;;;;;;27.18;48.77;64817.53;4894325;29;20239;-77
2022/08/12 10:13:43;;;;;;;3.20;3.00;;;;;;;26.93;47.68;64793.94;4896372;29;20227;-76
2022/08/12 10:16:16;;;;;;;3.13;2.95;;;;;;;26.84;47.22;64779.25;4894982;29;20201;-76
2022/08/12 10:18:45;;;;;;;3.25;3.05;;;;;;;26.61;48.19;64760.34;4894975;29;20233;-77
2022/08/12 10:21:14;;;;;;;3.40;3.10;;;;;;;26.64;48.20;64762.97;4895661;29;20279;-77
2022/08/12 10:23:42;;;;;;;2.88;2.78;;;;;;;26.95;47.41;64795.50;4895547;29;20229;-79
2022/08/12 10:31:41;;;;;;;2.90;2.70;;;;;;;27.34;45.63;64836.44;4896348;29;20239;-77
2022/08/12 10:34:10;;;;;;;2.85;2.70;;;;;;;27.25;45.44;64824.34;4895569;29;20403;-76
2022/08/12 10:36:38;;;;;;;3.22;3.13;;;;;;;27.28;45.63;64830.63;4895872;29;20210;-76
2022/08/12 10:39:05;;;;;;;3.00;2.90;;;;;;;27.50;44.51;64853.22;4896848;29;20335;-77
2022/08/12 10:44:14;;;;;;;2.85;2.75;;;;;;;27.57;45.90;64860.03;4864554;29;20275;-77
2022/08/12 10:46:44;;;;;;;3.10;2.97;;;;;;;27.64;45.60;64862.16;4895275;29;20274;-77
2022/08/12 10:49:12;;;;;;;3.63;3.33;;;;;;;27.69;45.91;64875.78;4895045;29;20218;-77
2022/08/12 10:51:39;;;;;;;3.33;3.13;;;;;;;27.49;44.08;64846.94;4895327;29;20233;-78
2022/08/12 10:54:07;;;;;;;3.15;2.95;;;;;;;26.96;46.91;64796.53;4895417;29;20282;-77
2022/08/12 10:56:35;;;;;;;2.92;2.70;;;;;;;27.03;47.90;64799.19;4895497;29;20219;-76
2022/08/12 10:59:03;;;;;;;2.90;2.80;;;;;;;26.95;47.73;64796.03;4895565;29;20227;-76
2022/08/12 11:01:32;;;;;;;3.58;3.35;;;;;;;26.87;46.79;64785.00;4895511;29;20206;-77
2022/08/12 11:04:01;;;;;;;3.25;3.05;;;;;;;26.69;48.56;64768.75;4895171;29;20254;-76
2022/08/12 11:06:29;;;;;;;3.45;3.15;;;;;;;26.65;48.49;64764.00;4889069;29;20231;-77
2022/08/12 11:08:56;;;;;;;3.10;2.97;;;;;;;26.76;49.25;64775.56;4874685;29;20239;-77
2022/08/12 11:11:24;;;;;;;3.25;3.05;;;;;;;26.63;48.89;64754.59;4874278;29;20271;-76
2022/08/12 11:13:51;;;;;;;3.40;3.30;;;;;;;26.47;48.87;64745.66;4874351;29;20238;-76
2022/08/12 11:16:18;;;;;;;2.95;2.85;;;;;;;26.29;50.02;64721.03;4874168;29;20229;-76
2022/08/12 11:18:47;;;;;;;3.17;2.97;;;;;;;26.26;50.77;64723.66;4874491;29;20246;-77
2022/08/12 11:21:14;;;;;;;3.17;2.90;;;;;;;26.31;50.73;64717.91;4874049;29;20235;-77
2022/08/12 11:23:41;;;;;;;3.15;2.97;;;;;;;26.26;50.77;64723.13;4873875;29;20319;-78
2022/08/12 11:26:08;;;;;;;3.30;3.17;;;;;;;26.25;51.69;64719.97;4873396;29;20210;-77
2022/08/12 11:28:36;;;;;;;3.63;3.42;;;;;;;26.06;52.75;64700.59;4874368;29;20255;-76
2022/08/12 11:31:04;;;;;;;3.33;3.22;;;;;;;25.99;53.70;64690.09;4873921;29;20206;-77
2022/08/12 11:33:32;;;;;;;3.42;3.20;;;;;;;25.81;54.63;64676.97;4874408;29;20532;-78
2022/08/12 11:36:06;;;;;;;2.97;2.70;;;;;;;25.08;62.69;64595.25;4874421;29;20200;-77
2022/08/12 11:38:34;;;;;;;3.03;2.83;;;;;;;24.97;59.53;64583.75;4874504;29;20226;-77
2022/08/12 11:41:03;;;;;;;3.40;3.20;;;;;;;24.67;64.02;64554.91;4875041;29;20234;-78
2022/08/12 11:43:30;;;;;;;3.78;3.58;;;;;;;24.20;74.30;64508.28;4874710;29;20272;-77
2022/08/12 11:45:58;;;;;;;3.27;3.07;;;;;;;23.91;76.61;64478.97;4874373;29;20423;-77
2022/08/12 11:48:25;;;;;;;3.28;3.17;;;;;;;23.74;80.00;64458.06;4874273;29;20223;-76
2022/08/12 11:50:52;;;;;;;3.90;3.60;;;;;;;23.91;78.58;64473.25;4873882;29;20203;-78
2022/08/12 11:53:21;;;;;;;4.40;4.10;;;;;;;24.22;75.84;64507.78;4873976;29;20224;-77
2022/08/12 11:55:48;;;;;;;3.45;3.25;;;;;;;24.40;74.86;64526.63;4873496;29;20263;-77
2022/08/12 11:58:15;;;;;;;3.92;3.63;;;;;;;24.47;75.70;64528.75;4874163;29;20227;-75
2022/08/12 12:00:42;;;;;;;4.93;3.70;;;;;;;24.51;75.90;64538.13;4873448;29;20266;-78
2022/08/12 12:03:09;;;;;;;6.00;3.63;;;;;;;24.41;73.76;64530.81;4873901;29;20241;-78
2022/08/12 12:05:36;;;;;;;4.05;3.70;;;;;;;24.29;76.03;64513.03;4873566;29;20500;-77
2022/08/12 12:08:03;;;;;;;3.45;3.28;;;;;;;24.58;71.64;64543.41;4890373;29;20234;-77
2022/08/12 12:10:32;;;;;;;3.20;3.10;;;;;;;24.67;70.43;64552.81;4892479;29;20407;-77
2022/08/12 12:12:59;;;;;;;2.97;2.88;;;;;;;25.10;62.33;64597.34;4892690;29;20266;-77
2022/08/12 12:15:26;;;;;;;3.30;3.05;;;;;;;25.15;62.59;64607.78;4891673;29;20206;-79
2022/08/12 12:17:53;;;;;;;3.40;3.20;;;;;;;25.13;63.12;64601.00;4891877;29;20267;-79
2022/08/12 12:20:20;;;;;;;3.83;3.63;;;;;;;25.26;64.75;64619.34;4892506;29;20210;-78
2022/08/12 12:22:47;;;;;;;3.10;3.00;;;;;;;25.98;56.84;64692.19;4892241;29;20286;-76
2022/08/12 12:25:15;;;;;;;2.92;2.78;;;;;;;27.02;47.78;64800.22;4892008;29;20253;-77
2022/08/12 12:27:52;;;;;;;2.70;2.60;;;;;;;27.61;45.81;64862.13;4892486;29;20238;-79
2022/08/12 12:30:20;;;;;;;3.03;2.80;;;;;;;26.77;45.36;64774.00;4892561;29;20226;-77
2022/08/12 12:32:47;;;;;;;4.03;3.40;;;;;;;27.06;45.03;64804.94;4892145;29;20226;-77
2022/08/12 12:35:14;;;;;;;3.75;3.55;;;;;;;27.12;43.86;64805.47;4892107;29;20228;-76
2022/08/12 12:37:52;;;;;;;3.40;3.10;;;;;;;26.66;46.96;64759.84;4891307;29;20199;-77
2022/08/12 12:40:20;;;;;;;3.45;3.25;;;;;;;26.39;47.55;64734.66;4893202;29;20469;-78
2022/08/12 12:42:49;;;;;;;6.25;3.50;;;;;;;26.89;47.43;64787.13;4892701;29;20433;-78
2022/08/12 12:45:16;;;;;;;3.20;2.97;;;;;;;27.28;46.19;64828.03;4892619;29;20274;-79
2022/08/12 12:47:53;;;;;;;3.67;3.47;;;;;;;27.33;45.38;64835.38;4892805;29;20465;-77
2022/08/12 12:50:21;;;;;;;3.75;3.50;;;;;;;27.21;47.18;64820.66;4891548;29;20229;-79
2022/08/12 12:52:48;;;;;;;3.70;3.40;;;;;;;27.69;45.76;64870.56;4893396;29;20210;-77
2022/08/12 12:55:15;;;;;;;3.70;3.50;;;;;;;27.63;44.50;64863.72;4891623;29;20223;-78
2022/08/12 12:57:44;;;;;;;3.70;3.50;;;;;;;28.07;45.19;64909.94;4892800;29;20237;-78
2022/08/12 13:00:17;;;;;;;3.53;3.28;;;;;;;28.17;45.70;64920.41;4891124;29;20260;-77
2022/08/12 13:02:51;;;;;;;4.00;3.70;;;;;;;28.46;43.96;64947.72;4892253;29;20255;-78
2022/08/12 13:05:20;;;;;;;3.25;3.13;;;;;;;28.58;44.63;64960.88;4892554;29;20225;-77
2022/08/12 13:07:48;;;;;;;3.92;3.50;;;;;;;28.65;45.77;64973.47;4887718;29;20538;-78
2022/08/12 13:10:15;;;;;;;4.97;3.42;;;;;;;28.85;45.57;64991.31;4891964;29;20302;-80
2022/08/12 13:12:42;;;;;;;3.58;3.38;;;;;;;29.16;44.81;65026.53;4891453;29;20211;-78
2022/08/12 13:15:14;;;;;;;3.60;3.40;;;;;;;29.18;44.88;65023.91;4892312;29;20289;-78
2022/08/12 13:17:46;;;;;;;3.90;3.60;;;;;;;29.30;45.08;65041.75;4892099;29;20234;-78
2022/08/12 13:20:15;;;;;;;3.80;3.60;;;;;;;29.80;44.44;65093.81;4892158;29;20227;-78
2022/08/12 13:22:42;;;;;;;3.90;3.60;;;;;;;29.92;42.76;65103.28;4891529;29;20380;-78
2022/08/12 13:25:09;;;;;;;3.47;3.28;;;;;;;30.02;42.32;65111.16;4891535;29;20262;-79